Weather at Brussels Airport

Public forecast

Using degrees Celsius for public forecast. Weather courtesy of forecast.io.

Current aviation weather report (METAR) for Brussels Airport

Retrieved 2020/11/28 18:20 UTC (1 minute ago):

EBBR 281820Z 08003KT CAVOK 05/03 Q1021 BECMG FM1930 2000 BR BKN003 TEMPO FM1930 0800 FG BKN001

Aviation forecast (TAF) for Brussels Airport

Retrieved 2020/11/28 18:59 UTC (0 seconds ago):

TAF COR EBBR 281741Z 2818/2924 06006KT CAVOK BECMG 2818/2820 4000 BR BECMG 2820/2822 2000 BKN003 PROB40 TEMPO 2900/2908 0800 FG BKN001 BECMG 2910/2912 6000 NSW TEMPO 2922/2924 4000 BR